sensor_id;sensor_type;location;lat;lon;timestamp;pressure;altitude;pressure_sealevel;temperature;humidity
72486;BME280;60509;47.308;-122.428;2022-08-06T00:01:57;100621.15;;;28.00;12.29
72486;BME280;60509;47.308;-122.428;2022-08-06T00:04:23;100618.02;;;28.51;12.55
72486;BME280;60509;47.308;-122.428;2022-08-06T00:06:48;100619.80;;;30.64;11.82
72486;BME280;60509;47.308;-122.428;2022-08-06T00:09:14;100611.86;;;27.64;12.55
72486;BME280;60509;47.308;-122.428;2022-08-06T00:11:39;100610.33;;;28.92;12.52
72486;BME280;60509;47.308;-122.428;2022-08-06T00:14:04;100608.84;;;29.23;12.36
72486;BME280;60509;47.308;-122.428;2022-08-06T00:16:29;100610.31;;;29.16;12.39
72486;BME280;60509;47.308;-122.428;2022-08-06T00:18:54;100608.43;;;28.58;12.24
72486;BME280;60509;47.308;-122.428;2022-08-06T00:21:19;100606.95;;;29.44;12.14
72486;BME280;60509;47.308;-122.428;2022-08-06T00:23:44;100603.23;;;29.79;12.00
72486;BME280;60509;47.308;-122.428;2022-08-06T00:26:09;100598.38;;;26.59;13.08
72486;BME280;60509;47.308;-122.428;2022-08-06T00:28:35;100600.99;;;29.66;11.79
72486;BME280;60509;47.308;-122.428;2022-08-06T00:31:01;100600.12;;;29.57;11.32
72486;BME280;60509;47.308;-122.428;2022-08-06T00:33:25;100596.14;;;30.35;11.43
72486;BME280;60509;47.308;-122.428;2022-08-06T00:35:50;100598.12;;;29.78;11.10
72486;BME280;60509;47.308;-122.428;2022-08-06T00:38:15;100606.74;;;30.41;10.84
72486;BME280;60509;47.308;-122.428;2022-08-06T00:40:41;100609.90;;;29.42;12.22
72486;BME280;60509;47.308;-122.428;2022-08-06T00:43:06;100607.45;;;28.08;13.96
72486;BME280;60509;47.308;-122.428;2022-08-06T00:45:32;100605.80;;;28.15;14.16
72486;BME280;60509;47.308;-122.428;2022-08-06T00:47:56;100611.83;;;26.23;15.81
72486;BME280;60509;47.308;-122.428;2022-08-06T00:50:21;100599.06;;;28.62;14.06
72486;BME280;60509;47.308;-122.428;2022-08-06T00:52:46;100595.89;;;29.58;13.25
72486;BME280;60509;47.308;-122.428;2022-08-06T00:55:11;100596.75;;;27.12;14.14
72486;BME280;60509;47.308;-122.428;2022-08-06T00:57:36;100593.63;;;30.60;12.41
72486;BME280;60509;47.308;-122.428;2022-08-06T01:00:02;100593.61;;;30.35;12.12
72486;BME280;60509;47.308;-122.428;2022-08-06T01:02:26;100591.66;;;31.47;10.98
72486;BME280;60509;47.308;-122.428;2022-08-06T01:04:51;100598.35;;;30.32;12.36
72486;BME280;60509;47.308;-122.428;2022-08-06T01:07:17;100598.50;;;29.07;13.85
72486;BME280;60509;47.308;-122.428;2022-08-06T01:09:42;100598.28;;;29.23;13.46
72486;BME280;60509;47.308;-122.428;2022-08-06T01:12:07;100598.24;;;30.14;12.90
72486;BME280;60509;47.308;-122.428;2022-08-06T01:14:32;100593.45;;;31.54;12.41
72486;BME280;60509;47.308;-122.428;2022-08-06T01:17:01;100586.61;;;28.76;13.56
72486;BME280;60509;47.308;-122.428;2022-08-06T01:19:40;100583.92;;;31.61;12.11
72486;BME280;60509;47.308;-122.428;2022-08-06T01:22:02;100584.01;;;28.95;13.11
72486;BME280;60509;47.308;-122.428;2022-08-06T01:24:49;100585.03;;;31.68;12.36
72486;BME280;60509;47.308;-122.428;2022-08-06T01:26:45;100575.64;;;30.25;13.23
72486;BME280;60509;47.308;-122.428;2022-08-06T01:29:05;100575.21;;;30.75;12.50
72486;BME280;60509;47.308;-122.428;2022-08-06T01:31:34;100569.71;;;31.37;12.39
72486;BME280;60509;47.308;-122.428;2022-08-06T01:33:59;100569.51;;;30.08;12.53
72486;BME280;60509;47.308;-122.428;2022-08-06T01:36:23;100570.83;;;30.90;12.60
72486;BME280;60509;47.308;-122.428;2022-08-06T01:38:47;100571.33;;;31.20;12.68
72486;BME280;60509;47.308;-122.428;2022-08-06T01:41:11;100569.59;;;31.76;12.05
72486;BME280;60509;47.308;-122.428;2022-08-06T01:43:35;100569.46;;;30.75;13.22
72486;BME280;60509;47.308;-122.428;2022-08-06T01:46:00;100570.33;;;32.21;12.60
72486;BME280;60509;47.308;-122.428;2022-08-06T01:48:27;100566.53;;;30.06;13.48
72486;BME280;60509;47.308;-122.428;2022-08-06T01:50:52;100568.69;;;32.11;12.40
72486;BME280;60509;47.308;-122.428;2022-08-06T01:53:19;100566.11;;;33.11;11.91
72486;BME280;60509;47.308;-122.428;2022-08-06T01:55:43;100564.33;;;32.13;12.10
72486;BME280;60509;47.308;-122.428;2022-08-06T01:58:06;100565.86;;;32.14;12.68
72486;BME280;60509;47.308;-122.428;2022-08-06T02:00:34;100560.99;;;34.15;11.08
72486;BME280;60509;47.308;-122.428;2022-08-06T02:02:59;100561.43;;;31.42;11.63
72486;BME280;60509;47.308;-122.428;2022-08-06T02:05:22;100561.85;;;34.29;10.47
72486;BME280;60509;47.308;-122.428;2022-08-06T02:07:49;100564.75;;;32.69;11.44
72486;BME280;60509;47.308;-122.428;2022-08-06T02:10:13;100566.29;;;32.42;11.76
72486;BME280;60509;47.308;-122.428;2022-08-06T02:12:39;100567.49;;;32.41;11.86
72486;BME280;60509;47.308;-122.428;2022-08-06T02:15:07;100564.77;;;31.25;12.05
72486;BME280;60509;47.308;-122.428;2022-08-06T02:17:33;100561.99;;;31.14;12.78
72486;BME280;60509;47.308;-122.428;2022-08-06T02:19:54;100563.40;;;31.20;11.87
72486;BME280;60509;47.308;-122.428;2022-08-06T02:22:19;100562.40;;;30.13;11.83
72486;BME280;60509;47.308;-122.428;2022-08-06T02:24:44;100562.50;;;29.59;11.80
72486;BME280;60509;47.308;-122.428;2022-08-06T02:27:10;100555.79;;;31.03;10.78
72486;BME280;60509;47.308;-122.428;2022-08-06T02:29:35;100554.50;;;33.42;9.94
72486;BME280;60509;47.308;-122.428;2022-08-06T02:31:59;100550.98;;;32.32;10.46
72486;BME280;60509;47.308;-122.428;2022-08-06T02:34:24;100549.63;;;33.88;9.97
72486;BME280;60509;47.308;-122.428;2022-08-06T02:36:55;100552.07;;;29.23;11.58
72486;BME280;60509;47.308;-122.428;2022-08-06T02:39:20;100553.32;;;28.86;11.81
72486;BME280;60509;47.308;-122.428;2022-08-06T02:41:43;100547.97;;;30.20;11.47
72486;BME280;60509;47.308;-122.428;2022-08-06T02:44:11;100546.57;;;30.23;11.40
72486;BME280;60509;47.308;-122.428;2022-08-06T02:46:36;100548.55;;;27.96;12.52
72486;BME280;60509;47.308;-122.428;2022-08-06T02:49:01;100547.61;;;31.21;11.26
72486;BME280;60509;47.308;-122.428;2022-08-06T02:51:27;100549.57;;;28.74;12.25
72486;BME280;60509;47.308;-122.428;2022-08-06T02:53:54;100550.21;;;25.32;13.95
72486;BME280;60509;47.308;-122.428;2022-08-06T02:56:13;100554.73;;;28.36;12.85
72486;BME280;60509;47.308;-122.428;2022-08-06T02:58:41;100558.50;;;26.14;14.32
72486;BME280;60509;47.308;-122.428;2022-08-06T03:01:05;100563.45;;;19.90;17.98
72486;BME280;60509;47.308;-122.428;2022-08-06T03:03:28;100563.06;;;20.17;19.05
72486;BME280;60509;47.308;-122.428;2022-08-06T03:05:54;100568.03;;;21.25;19.34
72486;BME280;60509;47.308;-122.428;2022-08-06T03:08:22;100570.19;;;20.02;20.74
72486;BME280;60509;47.308;-122.428;2022-08-06T03:10:44;100568.80;;;22.24;19.80
72486;BME280;60509;47.308;-122.428;2022-08-06T03:13:09;100572.75;;;21.53;20.43
72486;BME280;60509;47.308;-122.428;2022-08-06T03:15:35;100578.73;;;20.70;21.18
72486;BME280;60509;47.308;-122.428;2022-08-06T03:18:01;100579.46;;;17.44;24.29
72486;BME280;60509;47.308;-122.428;2022-08-06T03:20:27;100578.91;;;17.71;25.46
72486;BME280;60509;47.308;-122.428;2022-08-06T03:22:52;100585.43;;;16.34;26.69
72486;BME280;60509;47.308;-122.428;2022-08-06T03:25:17;100584.40;;;17.43;26.30
72486;BME280;60509;47.308;-122.428;2022-08-06T03:27:43;100585.62;;;16.02;27.13
72486;BME280;60509;47.308;-122.428;2022-08-06T03:30:09;100585.02;;;11.69;31.50
72486;BME280;60509;47.308;-122.428;2022-08-06T03:32:33;100589.42;;;12.91;31.54
72486;BME280;60509;47.308;-122.428;2022-08-06T03:35:00;100596.66;;;12.65;32.70
72486;BME280;60509;47.308;-122.428;2022-08-06T03:37:25;100598.66;;;12.29;33.47
72486;BME280;60509;47.308;-122.428;2022-08-06T03:39:51;100595.93;;;11.82;33.90
72486;BME280;60509;47.308;-122.428;2022-08-06T03:42:16;100597.52;;;12.00;34.26
72486;BME280;60509;47.308;-122.428;2022-08-06T03:44:42;100600.27;;;12.97;33.20
72486;BME280;60509;47.308;-122.428;2022-08-06T03:47:12;100599.14;;;9.88;37.04
72486;BME280;60509;47.308;-122.428;2022-08-06T03:49:36;100606.94;;;10.93;36.49
72486;BME280;60509;47.308;-122.428;2022-08-06T03:52:00;100604.26;;;10.75;36.38
72486;BME280;60509;47.308;-122.428;2022-08-06T03:54:26;100612.29;;;10.25;37.57
72486;BME280;60509;47.308;-122.428;2022-08-06T03:56:53;100614.56;;;9.46;38.24
72486;BME280;60509;47.308;-122.428;2022-08-06T03:59:17;100613.74;;;10.38;38.34
72486;BME280;60509;47.308;-122.428;2022-08-06T04:01:45;100614.04;;;10.60;37.82
72486;BME280;60509;47.308;-122.428;2022-08-06T04:04:08;100620.85;;;10.79;37.24
72486;BME280;60509;47.308;-122.428;2022-08-06T04:06:34;100617.62;;;10.60;36.91
72486;BME280;60509;47.308;-122.428;2022-08-06T04:09:00;100619.30;;;9.94;38.26
72486;BME280;60509;47.308;-122.428;2022-08-06T04:11:25;100622.75;;;9.04;38.96
72486;BME280;60509;47.308;-122.428;2022-08-06T04:13:51;100627.74;;;9.67;39.17
72486;BME280;60509;47.308;-122.428;2022-08-06T04:16:17;100631.62;;;9.75;39.60
72486;BME280;60509;47.308;-122.428;2022-08-06T04:18:43;100635.03;;;10.19;39.61
72486;BME280;60509;47.308;-122.428;2022-08-06T04:21:14;100635.78;;;8.94;40.67
72486;BME280;60509;47.308;-122.428;2022-08-06T04:23:35;100635.33;;;9.07;39.87
72486;BME280;60509;47.308;-122.428;2022-08-06T04:26:03;100637.82;;;9.70;38.84
72486;BME280;60509;47.308;-122.428;2022-08-06T04:28:29;100636.36;;;9.48;38.96
72486;BME280;60509;47.308;-122.428;2022-08-06T04:30:53;100637.76;;;8.80;39.46
72486;BME280;60509;47.308;-122.428;2022-08-06T04:33:21;100639.47;;;8.78;40.05
72486;BME280;60509;47.308;-122.428;2022-08-06T04:35:44;100642.72;;;9.17;39.31
72486;BME280;60509;47.308;-122.428;2022-08-06T04:38:10;100642.88;;;8.76;40.13
72486;BME280;60509;47.308;-122.428;2022-08-06T04:40:37;100639.95;;;9.46;39.36
72486;BME280;60509;47.308;-122.428;2022-08-06T04:43:02;100642.67;;;8.75;39.94
72486;BME280;60509;47.308;-122.428;2022-08-06T04:45:28;100642.72;;;9.22;39.77
72486;BME280;60509;47.308;-122.428;2022-08-06T04:47:53;100648.42;;;9.02;40.57
72486;BME280;60509;47.308;-122.428;2022-08-06T04:50:19;100659.49;;;8.24;40.77
72486;BME280;60509;47.308;-122.428;2022-08-06T04:52:45;100661.27;;;8.46;40.55
72486;BME280;60509;47.308;-122.428;2022-08-06T04:55:11;100664.05;;;8.26;40.79
72486;BME280;60509;47.308;-122.428;2022-08-06T04:57:37;100666.99;;;8.34;40.28
72486;BME280;60509;47.308;-122.428;2022-08-06T05:00:04;100664.15;;;9.02;39.56
72486;BME280;60509;47.308;-122.428;2022-08-06T05:02:29;100666.56;;;8.54;40.71
72486;BME280;60509;47.308;-122.428;2022-08-06T05:04:56;100668.95;;;8.67;40.09
72486;BME280;60509;47.308;-122.428;2022-08-06T05:07:22;100669.21;;;8.47;40.86
72486;BME280;60509;47.308;-122.428;2022-08-06T05:09:47;100668.27;;;8.28;40.65
72486;BME280;60509;47.308;-122.428;2022-08-06T05:12:18;100671.82;;;8.51;40.72
72486;BME280;60509;47.308;-122.428;2022-08-06T05:14:42;100675.62;;;8.95;40.06
72486;BME280;60509;47.308;-122.428;2022-08-06T05:17:05;100679.34;;;8.15;41.62
72486;BME280;60509;47.308;-122.428;2022-08-06T05:19:36;100678.84;;;7.96;41.12
72486;BME280;60509;47.308;-122.428;2022-08-06T05:21:57;100675.02;;;8.04;40.80
72486;BME280;60509;47.308;-122.428;2022-08-06T05:24:22;100677.05;;;8.02;40.85
72486;BME280;60509;47.308;-122.428;2022-08-06T05:26:48;100677.90;;;8.28;40.16
72486;BME280;60509;47.308;-122.428;2022-08-06T05:29:18;100684.09;;;8.20;41.00
72486;BME280;60509;47.308;-122.428;2022-08-06T05:31:40;100683.51;;;8.24;40.64
72486;BME280;60509;47.308;-122.428;2022-08-06T05:34:09;100684.11;;;8.77;40.07
72486;BME280;60509;47.308;-122.428;2022-08-06T05:36:32;100684.49;;;9.30;38.97
72486;BME280;60509;47.308;-122.428;2022-08-06T05:38:57;100686.83;;;8.91;39.43
72486;BME280;60509;47.308;-122.428;2022-08-06T05:41:23;100689.05;;;8.60;39.87
72486;BME280;60509;47.308;-122.428;2022-08-06T05:43:49;100691.71;;;9.59;38.47
72486;BME280;60509;47.308;-122.428;2022-08-06T05:46:18;100691.11;;;9.79;38.15
72486;BME280;60509;47.308;-122.428;2022-08-06T05:48:44;100696.06;;;9.23;38.79
72486;BME280;60509;47.308;-122.428;2022-08-06T05:51:10;100697.35;;;9.78;38.19
72486;BME280;60509;47.308;-122.428;2022-08-06T05:53:36;100703.50;;;7.73;40.25
72486;BME280;60509;47.308;-122.428;2022-08-06T05:56:04;100702.64;;;9.61;38.48
72486;BME280;60509;47.308;-122.428;2022-08-06T05:58:29;100702.85;;;8.20;39.76
72486;BME280;60509;47.308;-122.428;2022-08-06T06:00:51;100705.04;;;8.67;39.36
72486;BME280;60509;47.308;-122.428;2022-08-06T06:03:17;100702.40;;;8.79;39.21
72486;BME280;60509;47.308;-122.428;2022-08-06T06:05:43;100703.68;;;7.84;40.42
72486;BME280;60509;47.308;-122.428;2022-08-06T06:08:09;100701.51;;;8.80;39.16
72486;BME280;60509;47.308;-122.428;2022-08-06T06:10:35;100704.34;;;8.69;39.06
72486;BME280;60509;47.308;-122.428;2022-08-06T06:13:01;100701.68;;;9.15;38.58
72486;BME280;60509;47.308;-122.428;2022-08-06T06:15:27;100704.99;;;9.70;38.15
72486;BME280;60509;47.308;-122.428;2022-08-06T06:18:04;100705.55;;;9.37;38.68
72486;BME280;60509;47.308;-122.428;2022-08-06T06:20:23;100705.81;;;8.43;39.38
72486;BME280;60509;47.308;-122.428;2022-08-06T06:22:51;100703.82;;;9.11;38.43
72486;BME280;60509;47.308;-122.428;2022-08-06T06:25:15;100704.77;;;9.39;38.23
72486;BME280;60509;47.308;-122.428;2022-08-06T06:27:45;100704.43;;;9.32;38.49
72486;BME280;60509;47.308;-122.428;2022-08-06T06:30:03;100704.00;;;8.43;39.36
72486;BME280;60509;47.308;-122.428;2022-08-06T06:32:38;100708.00;;;8.85;39.11
72486;BME280;60509;47.308;-122.428;2022-08-06T06:34:59;100711.38;;;9.36;38.37
72486;BME280;60509;47.308;-122.428;2022-08-06T06:37:28;100712.18;;;9.41;38.04
72486;BME280;60509;47.308;-122.428;2022-08-06T06:39:53;100715.86;;;8.71;38.65
72486;BME280;60509;47.308;-122.428;2022-08-06T06:42:16;100719.87;;;8.82;38.87
72486;BME280;60509;47.308;-122.428;2022-08-06T06:44:42;100722.00;;;7.86;39.04
72486;BME280;60509;47.308;-122.428;2022-08-06T06:47:07;100721.83;;;8.61;38.78
72486;BME280;60509;47.308;-122.428;2022-08-06T06:49:34;100717.73;;;9.65;37.95
72486;BME280;60509;47.308;-122.428;2022-08-06T06:51:58;100720.18;;;8.47;39.25
72486;BME280;60509;47.308;-122.428;2022-08-06T06:54:26;100722.89;;;8.93;38.81
72486;BME280;60509;47.308;-122.428;2022-08-06T06:56:48;100722.57;;;9.09;39.10
72486;BME280;60509;47.308;-122.428;2022-08-06T06:59:16;100724.91;;;8.02;40.19
72486;BME280;60509;47.308;-122.428;2022-08-06T07:01:39;100726.38;;;8.52;40.13
72486;BME280;60509;47.308;-122.428;2022-08-06T07:04:09;100727.34;;;8.56;40.05
72486;BME280;60509;47.308;-122.428;2022-08-06T07:06:31;100725.79;;;8.77;40.32
72486;BME280;60509;47.308;-122.428;2022-08-06T07:08:57;100720.93;;;8.73;39.86
72486;BME280;60509;47.308;-122.428;2022-08-06T07:11:24;100722.73;;;8.49;40.59
72486;BME280;60509;47.308;-122.428;2022-08-06T07:13:50;100719.70;;;7.62;41.58
72486;BME280;60509;47.308;-122.428;2022-08-06T07:16:17;100723.74;;;7.46;42.38
72486;BME280;60509;47.308;-122.428;2022-08-06T07:18:42;100728.13;;;8.09;41.77
72486;BME280;60509;47.308;-122.428;2022-08-06T07:21:07;100730.11;;;8.35;40.84
72486;BME280;60509;47.308;-122.428;2022-08-06T07:23:33;100723.00;;;8.30;41.50
72486;BME280;60509;47.308;-122.428;2022-08-06T07:25:59;100719.84;;;8.07;42.11
72486;BME280;60509;47.308;-122.428;2022-08-06T07:28:25;100717.92;;;8.18;42.25
72486;BME280;60509;47.308;-122.428;2022-08-06T07:30:50;100719.07;;;7.88;42.49
72486;BME280;60509;47.308;-122.428;2022-08-06T07:33:17;100725.76;;;7.04;43.74
72486;BME280;60509;47.308;-122.428;2022-08-06T07:35:45;100719.33;;;8.03;42.14
72486;BME280;60509;47.308;-122.428;2022-08-06T07:38:10;100718.53;;;7.99;41.66
72486;BME280;60509;47.308;-122.428;2022-08-06T07:40:40;100722.06;;;8.41;41.50
72486;BME280;60509;47.308;-122.428;2022-08-06T07:43:04;100724.97;;;8.67;41.16
72486;BME280;60509;47.308;-122.428;2022-08-06T07:45:31;100727.80;;;8.82;41.11
72486;BME280;60509;47.308;-122.428;2022-08-06T07:47:53;100727.44;;;8.07;41.81
72486;BME280;60509;47.308;-122.428;2022-08-06T07:50:19;100726.04;;;8.23;41.63
72486;BME280;60509;47.308;-122.428;2022-08-06T07:52:44;100727.84;;;7.92;41.73
72486;BME280;60509;47.308;-122.428;2022-08-06T07:55:10;100728.06;;;8.07;41.92
72486;BME280;60509;47.308;-122.428;2022-08-06T07:57:35;100725.28;;;7.95;42.40
72486;BME280;60509;47.308;-122.428;2022-08-06T08:00:02;100725.23;;;7.97;42.33
72486;BME280;60509;47.308;-122.428;2022-08-06T08:02:29;100726.76;;;6.98;43.51
72486;BME280;60509;47.308;-122.428;2022-08-06T08:04:53;100722.43;;;7.67;42.74
72486;BME280;60509;47.308;-122.428;2022-08-06T08:07:20;100721.51;;;7.41;43.00
72486;BME280;60509;47.308;-122.428;2022-08-06T08:09:45;100714.97;;;7.95;42.34
72486;BME280;60509;47.308;-122.428;2022-08-06T08:12:12;100716.98;;;7.38;42.96
72486;BME280;60509;47.308;-122.428;2022-08-06T08:14:38;100711.27;;;8.27;41.84
72486;BME280;60509;47.308;-122.428;2022-08-06T08:17:03;100713.09;;;7.79;42.51
72486;BME280;60509;47.308;-122.428;2022-08-06T08:19:31;100712.52;;;8.23;41.74
72486;BME280;60509;47.308;-122.428;2022-08-06T08:21:55;100711.05;;;8.39;41.88
72486;BME280;60509;47.308;-122.428;2022-08-06T08:24:21;100715.56;;;7.30;42.90
72486;BME280;60509;47.308;-122.428;2022-08-06T08:26:47;100721.27;;;7.34;43.26
72486;BME280;60509;47.308;-122.428;2022-08-06T08:29:13;100723.98;;;7.63;43.07
72486;BME280;60509;47.308;-122.428;2022-08-06T08:31:39;100727.12;;;7.52;44.13
72486;BME280;60509;47.308;-122.428;2022-08-06T08:34:05;100732.35;;;7.21;44.67
72486;BME280;60509;47.308;-122.428;2022-08-06T08:36:31;100732.18;;;7.91;43.96
72486;BME280;60509;47.308;-122.428;2022-08-06T08:38:57;100734.95;;;7.62;44.29
72486;BME280;60509;47.308;-122.428;2022-08-06T08:41:27;100736.86;;;6.03;46.34
72486;BME280;60509;47.308;-122.428;2022-08-06T08:43:52;100734.64;;;6.96;45.44
72486;BME280;60509;47.308;-122.428;2022-08-06T08:46:15;100735.23;;;5.52;47.38
72486;BME280;60509;47.308;-122.428;2022-08-06T08:48:41;100733.13;;;6.83;45.96
72486;BME280;60509;47.308;-122.428;2022-08-06T08:51:06;100733.98;;;6.27;46.07
72486;BME280;60509;47.308;-122.428;2022-08-06T08:53:36;100725.84;;;7.04;44.72
72486;BME280;60509;47.308;-122.428;2022-08-06T08:55:56;100729.86;;;6.27;46.33
72486;BME280;60509;47.308;-122.428;2022-08-06T08:58:21;100734.37;;;5.38;47.44
72486;BME280;60509;47.308;-122.428;2022-08-06T09:00:45;100732.18;;;4.81;47.95
72486;BME280;60509;47.308;-122.428;2022-08-06T09:03:11;100729.86;;;6.67;45.60
72486;BME280;60509;47.308;-122.428;2022-08-06T09:05:35;100725.32;;;6.98;45.01
72486;BME280;60509;47.308;-122.428;2022-08-06T09:08:02;100729.02;;;6.60;45.56
72486;BME280;60509;47.308;-122.428;2022-08-06T09:10:26;100733.83;;;5.69;46.54
72486;BME280;60509;47.308;-122.428;2022-08-06T09:12:51;100742.40;;;4.68;48.31
72486;BME280;60509;47.308;-122.428;2022-08-06T09:15:17;100743.48;;;5.61;46.71
72486;BME280;60509;47.308;-122.428;2022-08-06T09:17:41;100748.50;;;5.76;46.38
72486;BME280;60509;47.308;-122.428;2022-08-06T09:20:06;100749.66;;;5.46;47.19
72486;BME280;60509;47.308;-122.428;2022-08-06T09:22:31;100753.18;;;4.25;48.70
72486;BME280;60509;47.308;-122.428;2022-08-06T09:24:55;100755.42;;;4.18;49.03
72486;BME280;60509;47.308;-122.428;2022-08-06T09:27:21;100756.80;;;5.55;47.20
72486;BME280;60509;47.308;-122.428;2022-08-06T09:29:51;100752.61;;;5.23;47.46
72486;BME280;60509;47.308;-122.428;2022-08-06T09:32:11;100745.67;;;5.66;47.55
72486;BME280;60509;47.308;-122.428;2022-08-06T09:34:38;100744.79;;;5.95;46.49
72486;BME280;60509;47.308;-122.428;2022-08-06T09:37:01;100749.85;;;5.25;47.70
72486;BME280;60509;47.308;-122.428;2022-08-06T09:39:35;100748.25;;;5.47;47.26
72486;BME280;60509;47.308;-122.428;2022-08-06T09:41:51;100743.83;;;6.10;46.32
72486;BME280;60509;47.308;-122.428;2022-08-06T09:44:16;100745.88;;;5.76;47.13
72486;BME280;60509;47.308;-122.428;2022-08-06T09:46:43;100748.65;;;5.90;47.06
72486;BME280;60509;47.308;-122.428;2022-08-06T09:49:08;100746.34;;;6.02;46.48
72486;BME280;60509;47.308;-122.428;2022-08-06T09:51:31;100750.45;;;4.77;48.65
72486;BME280;60509;47.308;-122.428;2022-08-06T09:53:58;100744.87;;;5.68;47.31
72486;BME280;60509;47.308;-122.428;2022-08-06T09:56:22;100743.13;;;6.00;46.82
72486;BME280;60509;47.308;-122.428;2022-08-06T09:58:47;100744.91;;;6.08;47.40
72486;BME280;60509;47.308;-122.428;2022-08-06T10:01:12;100743.30;;;5.59;47.28
72486;BME280;60509;47.308;-122.428;2022-08-06T10:03:39;100742.08;;;5.91;47.54
72486;BME280;60509;47.308;-122.428;2022-08-06T10:06:05;100739.92;;;5.70;47.52
72486;BME280;60509;47.308;-122.428;2022-08-06T10:08:28;100741.42;;;6.12;47.11
72486;BME280;60509;47.308;-122.428;2022-08-06T10:10:52;100744.92;;;5.36;47.87
72486;BME280;60509;47.308;-122.428;2022-08-06T10:13:19;100741.96;;;5.26;48.31
72486;BME280;60509;47.308;-122.428;2022-08-06T10:15:42;100744.21;;;5.71;47.67
72486;BME280;60509;47.308;-122.428;2022-08-06T10:18:07;100744.32;;;5.87;47.63
72486;BME280;60509;47.308;-122.428;2022-08-06T10:20:32;100745.55;;;5.71;47.96
72486;BME280;60509;47.308;-122.428;2022-08-06T10:22:57;100750.12;;;5.49;48.80
72486;BME280;60509;47.308;-122.428;2022-08-06T10:25:23;100753.60;;;6.04;48.22
72486;BME280;60509;47.308;-122.428;2022-08-06T10:27:47;100754.73;;;4.84;49.69
72486;BME280;60509;47.308;-122.428;2022-08-06T10:30:12;100752.69;;;5.34;48.82
72486;BME280;60509;47.308;-122.428;2022-08-06T10:32:43;100751.71;;;5.23;48.89
72486;BME280;60509;47.308;-122.428;2022-08-06T10:35:05;100750.73;;;4.85;49.46
72486;BME280;60509;47.308;-122.428;2022-08-06T10:37:28;100752.14;;;5.72;48.48
72486;BME280;60509;47.308;-122.428;2022-08-06T10:39:58;100750.55;;;5.35;48.60
72486;BME280;60509;47.308;-122.428;2022-08-06T10:42:18;100752.60;;;4.12;50.33
72486;BME280;60509;47.308;-122.428;2022-08-06T10:44:43;100751.69;;;5.02;49.60
72486;BME280;60509;47.308;-122.428;2022-08-06T10:47:08;100753.11;;;4.56;49.58
72486;BME280;60509;47.308;-122.428;2022-08-06T10:49:33;100755.57;;;5.22;48.51
72486;BME280;60509;47.308;-122.428;2022-08-06T10:51:58;100755.35;;;4.99;48.35
72486;BME280;60509;47.308;-122.428;2022-08-06T10:54:24;100756.49;;;4.29;49.92
72486;BME280;60509;47.308;-122.428;2022-08-06T10:56:48;100754.28;;;4.46;49.75
72486;BME280;60509;47.308;-122.428;2022-08-06T10:59:15;100754.62;;;4.38;49.96
72486;BME280;60509;47.308;-122.428;2022-08-06T11:01:45;100750.86;;;5.20;48.50
72486;BME280;60509;47.308;-122.428;2022-08-06T11:04:16;100754.92;;;5.01;48.77
72486;BME280;60509;47.308;-122.428;2022-08-06T11:06:44;100757.84;;;4.98;49.12
72486;BME280;60509;47.308;-122.428;2022-08-06T11:09:07;100757.50;;;4.73;49.63
72486;BME280;60509;47.308;-122.428;2022-08-06T11:11:30;100759.80;;;4.57;49.95
72486;BME280;60509;47.308;-122.428;2022-08-06T11:13:56;100764.06;;;4.31;50.19
72486;BME280;60509;47.308;-122.428;2022-08-06T11:16:22;100765.44;;;4.92;49.28
72486;BME280;60509;47.308;-122.428;2022-08-06T11:18:34;100764.07;;;5.33;48.45
72486;BME280;60509;47.308;-122.428;2022-08-06T11:20:59;100762.30;;;5.16;49.15
72486;BME280;60509;47.308;-122.428;2022-08-06T11:23:27;100760.73;;;4.78;50.55
72486;BME280;60509;47.308;-122.428;2022-08-06T11:25:51;100764.62;;;3.88;51.61
72486;BME280;60509;47.308;-122.428;2022-08-06T11:28:16;100760.87;;;5.01;50.91
72486;BME280;60509;47.308;-122.428;2022-08-06T11:30:43;100768.01;;;4.45;50.09
72486;BME280;60509;47.308;-122.428;2022-08-06T11:33:05;100772.48;;;4.25;50.77
72486;BME280;60509;47.308;-122.428;2022-08-06T11:35:47;100777.58;;;5.76;48.60
72486;BME280;60509;47.308;-122.428;2022-08-06T11:37:55;100772.30;;;5.49;49.39
72486;BME280;60509;47.308;-122.428;2022-08-06T11:40:20;100771.32;;;4.07;51.46
72486;BME280;60509;47.308;-122.428;2022-08-06T11:42:45;100771.45;;;4.98;49.61
72486;BME280;60509;47.308;-122.428;2022-08-06T11:45:11;100773.66;;;4.91;49.29
72486;BME280;60509;47.308;-122.428;2022-08-06T11:48:04;100776.04;;;5.41;48.87
72486;BME280;60509;47.308;-122.428;2022-08-06T11:50:01;100780.23;;;4.13;53.75
72486;BME280;60509;47.308;-122.428;2022-08-06T11:52:58;100783.09;;;4.46;51.73
72486;BME280;60509;47.308;-122.428;2022-08-06T11:55:03;100785.16;;;3.61;53.61
72486;BME280;60509;47.308;-122.428;2022-08-06T11:57:32;100782.86;;;3.84;53.31
72486;BME280;60509;47.308;-122.428;2022-08-06T11:59:47;100785.21;;;5.53;50.63
72486;BME280;60509;47.308;-122.428;2022-08-06T12:02:08;100786.59;;;4.69;51.38
72486;BME280;60509;47.308;-122.428;2022-08-06T12:04:40;100785.27;;;5.32;51.09
72486;BME280;60509;47.308;-122.428;2022-08-06T12:07:15;100786.60;;;4.90;51.61
72486;BME280;60509;47.308;-122.428;2022-08-06T12:09:35;100786.16;;;5.09;51.07
72486;BME280;60509;47.308;-122.428;2022-08-06T12:11:47;100783.31;;;3.91;52.49
72486;BME280;60509;47.308;-122.428;2022-08-06T12:14:39;100787.79;;;4.22;53.11
72486;BME280;60509;47.308;-122.428;2022-08-06T12:16:39;100788.82;;;4.81;52.29
72486;BME280;60509;47.308;-122.428;2022-08-06T12:19:05;100788.94;;;4.61;52.35